Alsen, North Dakota
Current Conditions -  °F | °C
As of 9:55 PM on Saturday 20 Dec 2014 (Local Time) from KD55 Reporting Station
Haze Haze  
Wind Chill: 21°   Ceiling: 100
Heat Index: 27°   Visibility: 1.5mi
Dew Point: 27°   Wind: 5mph
Humidity: 100%   Direction: 360°N
Pressure: 29.78"   Gusts: NA
Location:  48.63°N, 98.7°W
Report Text: KD55 210355Z AUTO 36004KT 1 1/2SM BR OVC001 M03/M03 A2978 RMK AO2
Loading
Personal Weather Stations






























Interactive Weather Map New forecast layout! Learn more

10-Day Weather Forecast

Advertisements
Track Severe Weather on mobile